This is the latest recevied weather packets stored in our database for station/object HB9CJD-1. If no packets are shown the sender has not sent any weather packets the latest 10 day(s).
| Time | Temp. | Humidity | Pressure | Rain* | Wind** | Luminosity | Snow |
|---|---|---|---|---|---|---|---|
| 1777814779 | 25.56° C | 32% | 1016.1 hPa | - | - | - | - |
| 1777814176 | 25.56° C | 31% | 1016.3 hPa | - | - | - | - |
| 1777814175 | 25.56° C | 31% | 1016.3 hPa | - | - | - | - |
| 1777813572 | 25.56° C | 28% | 1016.2 hPa | - | - | - | - |
| 1777813572 | 25.56° C | 28% | 1016.2 hPa | - | - | - | - |
| 1777812969 | 25.56° C | 31% | 1016.4 hPa | - | - | - | - |
| 1777812969 | 25.56° C | 31% | 1016.4 hPa | - | - | - | - |
| 1777812366 | 25° C | 31% | 1016.5 hPa | - | - | - | - |
| 1777812366 | 25° C | 31% | 1016.5 hPa | - | - | - | - |
| 1777811763 | 25.56° C | 32% | 1016.5 hPa | - | - | - | - |
| 1777811762 | 25.56° C | 32% | 1016.5 hPa | - | - | - | - |
| 1777811160 | 25° C | 35% | 1016.6 hPa | - | - | - | - |
| 1777811159 | 25° C | 35% | 1016.6 hPa | - | - | - | - |
| 1777810556 | 25° C | 35% | 1016.6 hPa | - | - | - | - |
| 1777810556 | 25° C | 35% | 1016.6 hPa | - | - | - | - |
| 1777809953 | 25° C | 37% | 1016.7 hPa | - | - | - | - |
| 1777809953 | 25° C | 37% | 1016.7 hPa | - | - | - | - |
| 1777809350 | 24.44° C | 36% | 1016.7 hPa | - | - | - | - |
| 1777809349 | 24.44° C | 36% | 1016.7 hPa | - | - | - | - |
| 1777808746 | 23.89° C | 39% | 1016.8 hPa | - | - | - | - |
| 1777808746 | 23.89° C | 39% | 1016.8 hPa | - | - | - | - |
| 1777808143 | 23.33° C | 41% | 1017 hPa | - | - | - | - |
| 1777808143 | 23.33° C | 41% | 1017 hPa | - | - | - | - |
| 1777807540 | 23.33° C | 39% | 1017.1 hPa | - | - | - | - |
| 1777807540 | 23.33° C | 39% | 1017.1 hPa | - | - | - | - |
* Rain since midnight (hover to see other rain measurements)
** Current wind speed in m/s (hover to see current wind gust speed)